Time;durP1;ratioP1;P1;durP2;ratioP2;P2;SDS_P1;SDS_P2;PMS_P1;PMS_P2;Temp;Humidity;BMP_temperature;BMP_pressure;BME280_temperature;BME280_humidity;BME280_pressure;Samples;Min_cycle;Max_cycle;Signal;HPM_P1;HPM_P2
2022/12/23 00:01:34;;;;;;;8.10;7.30;;;22.90;73.20;;;;;;6303501;27;89125;-67
2022/12/23 00:04:36;;;;;;;8.32;7.43;;;22.90;73.30;;;;;;6303928;27;89990;-67
2022/12/23 00:07:39;;;;;;;8.60;7.50;;;22.90;73.30;;;;;;6293906;27;89558;-68
2022/12/23 00:10:42;;;;;;;9.27;8.15;;;22.90;73.30;;;;;;6304852;27;89323;-68
2022/12/23 00:17:04;;;;;;;8.98;7.63;;;22.80;73.20;;;;;;6304052;27;88253;-67
2022/12/23 00:20:07;;;;;;;8.93;7.50;;;22.90;73.30;;;;;;6302966;27;89338;-68
2022/12/23 00:23:09;;;;;;;8.38;7.43;;;22.80;73.30;;;;;;6297850;27;89083;-67
2022/12/23 00:26:16;;;;;;;8.45;7.65;;;22.90;73.30;;;;;;6302092;27;88311;-67
2022/12/23 00:29:18;;;;;;;8.52;7.55;;;22.80;73.20;;;;;;6304058;27;89337;-66
2022/12/23 00:32:20;;;;;;;8.27;7.47;;;22.80;73.20;;;;;;6297344;27;87986;-68
2022/12/23 00:35:22;;;;;;;10.15;7.75;;;22.80;73.20;;;;;;6299483;27;90058;-67
2022/12/23 00:45:14;;;;;;;8.98;7.22;;;22.70;72.70;;;;;;6302904;27;87046;-67
2022/12/23 00:51:36;;;;;;;8.73;7.82;;;22.70;73.00;;;;;;6302773;27;87223;-68
2022/12/23 00:54:38;;;;;;;8.73;7.82;;;22.70;73.00;;;;;;6302160;27;89568;-66
2022/12/23 00:57:41;;;;;;;9.13;8.00;;;22.70;73.10;;;;;;6294851;27;87228;-68
2022/12/23 01:07:23;;;;;;;8.77;7.88;;;22.70;73.10;;;;;;6299965;27;89618;-67
2022/12/23 01:10:25;;;;;;;8.50;7.60;;;22.70;73.10;;;;;;6302860;27;89075;-66
2022/12/23 01:13:29;;;;;;;9.40;8.13;;;22.70;73.10;;;;;;6301357;27;89024;-68
2022/12/23 01:16:31;;;;;;;9.20;7.72;;;22.70;73.10;;;;;;6293896;27;89077;-67
2022/12/23 01:19:33;;;;;;;8.55;7.75;;;22.70;73.00;;;;;;6291836;27;89092;-68
2022/12/23 01:22:35;;;;;;;8.77;7.75;;;22.60;73.00;;;;;;6288569;27;87614;-67
2022/12/23 01:25:37;;;;;;;8.80;7.90;;;22.60;73.00;;;;;;6297171;27;89530;-67
2022/12/23 01:28:41;;;;;;;8.40;7.57;;;22.60;73.10;;;;;;6301423;27;88284;-66
2022/12/23 01:31:43;;;;;;;8.80;8.00;;;22.60;73.00;;;;;;6307603;27;89856;-68
2022/12/23 01:34:45;;;;;;;8.77;7.88;;;22.60;73.00;;;;;;6297616;27;88266;-67
2022/12/23 01:37:47;;;;;;;9.73;8.73;;;22.60;73.10;;;;;;6305558;27;90054;-67
2022/12/23 01:40:49;;;;;;;10.05;8.50;;;22.60;73.00;;;;;;6297366;27;88994;-67
2022/12/23 01:43:51;;;;;;;9.48;8.52;;;22.60;73.00;;;;;;6296369;27;89109;-67
2022/12/23 01:46:54;;;;;;;9.25;8.25;;;22.60;73.00;;;;;;6297561;27;89182;-67
2022/12/23 01:50:01;;;;;;;9.90;8.90;;;22.60;73.00;;;;;;6308072;27;89262;-67
2022/12/23 01:53:07;;;;;;;9.43;8.52;;;22.60;73.00;;;;;;6305754;27;87557;-67
2022/12/23 01:56:14;;;;;;;9.40;8.43;;;22.60;73.00;;;;;;6291598;27;89064;-67
2022/12/23 02:09:15;;;;;;;10.23;8.82;;;22.50;72.90;;;;;;6302513;27;87381;-67
2022/12/23 02:09:21;;;;;;;10.30;9.18;;;22.50;73.00;;;;;;6302363;27;89755;-67
2022/12/23 02:12:37;;;;;;;10.20;9.13;;;22.50;73.00;;;;;;6306172;27;88974;-68
2022/12/23 02:19:14;;;;;;;10.35;9.23;;;22.50;72.90;;;;;;6298977;27;87953;-68
2022/12/23 02:22:37;;;;;;;9.80;8.90;;;22.50;72.90;;;;;;6307027;27;89135;-67
2022/12/23 02:25:54;;;;;;;10.57;9.57;;;22.50;72.90;;;;;;6303391;27;89102;-68
2022/12/23 02:29:23;;;;;;;10.80;9.70;;;22.50;72.80;;;;;;6305937;27;88005;-67
2022/12/23 02:32:33;;;;;;;10.15;9.18;;;22.50;72.80;;;;;;6292450;27;88317;-67
2022/12/23 02:35:41;;;;;;;10.35;9.15;;;22.50;72.80;;;;;;6298312;27;89244;-67
2022/12/23 02:38:49;;;;;;;10.05;9.05;;;22.50;72.90;;;;;;6301457;27;89272;-67
2022/12/23 02:41:57;;;;;;;10.25;9.25;;;22.40;72.80;;;;;;6302510;27;89159;-67
2022/12/23 02:45:07;;;;;;;10.38;9.35;;;22.40;72.80;;;;;;6304391;27;89110;-67
2022/12/23 02:48:16;;;;;;;10.80;9.73;;;22.40;72.80;;;;;;6302747;27;88956;-67
2022/12/23 02:51:21;;;;;;;10.95;9.85;;;22.40;72.80;;;;;;6306772;27;89044;-68
2022/12/23 02:54:29;;;;;;;10.57;9.48;;;22.40;72.80;;;;;;6296253;27;89068;-68
2022/12/23 02:57:34;;;;;;;10.82;9.73;;;22.40;72.80;;;;;;6306429;27;87998;-68
2022/12/23 03:00:38;;;;;;;11.00;9.88;;;22.40;72.80;;;;;;6304423;27;89459;-67
2022/12/23 03:03:42;;;;;;;11.20;10.00;;;22.40;72.80;;;;;;6306956;27;87250;-67
2022/12/23 03:06:48;;;;;;;10.70;9.60;;;22.40;72.80;;;;;;6302895;27;89483;-68
2022/12/23 03:09:59;;;;;;;10.75;9.68;;;22.40;72.80;;;;;;6306615;27;89053;-67
2022/12/23 03:13:11;;;;;;;10.65;9.57;;;22.40;72.80;;;;;;6304800;27;90024;-67
2022/12/23 03:16:22;;;;;;;10.95;9.82;;;22.40;72.80;;;;;;6304409;27;89369;-67
2022/12/23 03:19:31;;;;;;;11.10;10.00;;;22.30;73.70;;;;;;6300314;27;88982;-67
2022/12/23 03:22:38;;;;;;;10.85;9.75;;;22.30;72.80;;;;;;6297541;27;89003;-66
2022/12/23 03:25:47;;;;;;;10.40;9.30;;;22.30;72.80;;;;;;6303612;27;89008;-68
2022/12/23 03:28:54;;;;;;;10.85;9.75;;;22.30;72.80;;;;;;6294700;27;90296;-68
2022/12/23 03:31:59;;;;;;;10.38;9.27;;;22.30;72.80;;;;;;6296545;27;87989;-68
2022/12/23 03:35:06;;;;;;;10.70;9.60;;;22.30;72.80;;;;;;6295726;27;88322;-68
2022/12/23 03:38:11;;;;;;;10.50;9.50;;;22.30;72.70;;;;;;6295426;27;89276;-67
2022/12/23 03:41:17;;;;;;;11.20;10.10;;;22.30;72.70;;;;;;6305097;27;90582;-68
2022/12/23 03:44:23;;;;;;;10.52;9.52;;;22.30;72.70;;;;;;6301460;27;89982;-68
2022/12/23 03:47:29;;;;;;;9.90;8.90;;;22.30;72.70;;;;;;6292771;27;89177;-67
2022/12/23 03:50:34;;;;;;;10.32;9.35;;;22.30;72.80;;;;;;6305147;27;89033;-67
2022/12/23 03:53:39;;;;;;;9.68;8.77;;;22.20;72.70;;;;;;6305380;27;89053;-68
2022/12/23 03:56:46;;;;;;;10.23;9.23;;;22.20;72.70;;;;;;6302211;27;89103;-67
2022/12/23 03:59:50;;;;;;;11.00;9.85;;;22.30;72.80;;;;;;6295602;27;89056;-67
2022/12/23 04:03:00;;;;;;;10.23;9.23;;;22.20;72.70;;;;;;6292148;27;89053;-68
2022/12/23 04:06:10;;;;;;;9.93;8.93;;;22.30;72.80;;;;;;6305737;27;88305;-68
2022/12/23 04:09:14;;;;;;;9.68;8.77;;;22.20;72.70;;;;;;6304841;27;89209;-67
2022/12/23 04:12:16;;;;;;;10.43;9.43;;;22.20;72.70;;;;;;6303437;27;89117;-68
2022/12/23 04:15:23;;;;;;;10.88;9.77;;;22.20;72.70;;;;;;6300988;27;90077;-67
2022/12/23 04:18:25;;;;;;;9.88;8.98;;;22.20;72.50;;;;;;6293964;27;89082;-67
2022/12/23 04:21:28;;;;;;;10.18;9.15;;;22.20;72.50;;;;;;6303013;27;89144;-67
2022/12/23 04:24:30;;;;;;;10.30;9.23;;;22.30;72.50;;;;;;6306834;27;89304;-67
2022/12/23 04:27:32;;;;;;;9.73;8.82;;;22.30;72.50;;;;;;6304410;27;89058;-67
2022/12/23 04:30:34;;;;;;;9.35;8.45;;;22.30;72.30;;;;;;6302132;27;88229;-67
2022/12/23 04:33:36;;;;;;;9.50;8.50;;;22.30;72.30;;;;;;6295179;27;89135;-67
2022/12/23 04:36:40;;;;;;;9.43;8.52;;;22.30;72.30;;;;;;6294019;27;88330;-67
2022/12/23 04:39:42;;;;;;;10.13;9.13;;;22.40;72.30;;;;;;6296873;27;88988;-67
2022/12/23 04:42:44;;;;;;;10.02;9.02;;;22.40;72.30;;;;;;6303752;27;89155;-67
2022/12/23 04:45:51;;;;;;;9.50;8.60;;;22.40;72.30;;;;;;6303794;27;90048;-67
2022/12/23 04:48:53;;;;;;;9.57;8.57;;;22.40;72.20;;;;;;6306446;27;88644;-67
2022/12/23 04:51:56;;;;;;;8.60;7.80;;;22.50;72.20;;;;;;6302655;27;89581;-67
2022/12/23 04:54:58;;;;;;;9.00;8.20;;;22.50;72.20;;;;;;6303246;27;89152;-67
2022/12/23 04:58:00;;;;;;;8.95;8.05;;;22.50;72.20;;;;;;6303295;27;89212;-67
2022/12/23 05:01:03;;;;;;;9.35;8.40;;;22.50;72.00;;;;;;6306272;27;89386;-67
2022/12/23 05:04:05;;;;;;;9.10;8.20;;;22.50;72.00;;;;;;6307858;27;89157;-67
2022/12/23 05:07:08;;;;;;;8.52;7.72;;;22.50;72.00;;;;;;6297825;27;88403;-68
2022/12/23 05:10:11;;;;;;;9.07;8.18;;;22.60;72.00;;;;;;6307350;27;90199;-67
2022/12/23 05:13:13;;;;;;;8.30;7.35;;;22.60;72.00;;;;;;6290314;27;89377;-67
2022/12/23 05:16:15;;;;;;;8.90;8.00;;;22.60;72.00;;;;;;6299959;27;90058;-67
2022/12/23 05:19:17;;;;;;;8.70;7.82;;;22.60;72.00;;;;;;6297429;27;89061;-68
2022/12/23 05:22:20;;;;;;;8.80;7.93;;;22.60;72.00;;;;;;6305875;27;89164;-67
2022/12/23 05:25:22;;;;;;;8.05;7.25;;;22.60;71.90;;;;;;6296141;27;89328;-68
2022/12/23 05:28:25;;;;;;;7.68;6.97;;;22.60;71.90;;;;;;6309535;27;89164;-68
2022/12/23 05:31:27;;;;;;;7.70;7.00;;;22.60;71.90;;;;;;6307099;27;89322;-67
2022/12/23 05:34:29;;;;;;;8.05;7.30;;;22.70;71.90;;;;;;6305339;27;89958;-67
2022/12/23 05:37:32;;;;;;;7.65;6.95;;;22.70;71.90;;;;;;6303310;27;88370;-67
2022/12/23 05:40:34;;;;;;;7.70;7.00;;;22.70;71.80;;;;;;6300844;27;89163;-67
2022/12/23 05:43:37;;;;;;;8.05;7.25;;;22.70;71.90;;;;;;6308561;27;89105;-67
2022/12/23 05:46:39;;;;;;;7.68;6.97;;;22.70;71.80;;;;;;6297653;27;89937;-67
2022/12/23 05:49:41;;;;;;;8.13;7.22;;;22.70;71.80;;;;;;6308241;27;89217;-68
2022/12/23 05:52:44;;;;;;;7.47;6.78;;;22.70;71.80;;;;;;6297612;27;88841;-68
2022/12/23 05:55:46;;;;;;;7.93;6.82;;;22.70;71.80;;;;;;6304590;27;89131;-68
2022/12/23 05:58:48;;;;;;;7.57;6.88;;;22.70;71.80;;;;;;6308461;27;89045;-68
2022/12/23 06:01:50;;;;;;;6.93;6.22;;;22.70;71.80;;;;;;6294144;27;89186;-66
2022/12/23 06:04:52;;;;;;;7.13;6.50;;;22.70;71.70;;;;;;6307550;27;89078;-67
2022/12/23 06:07:56;;;;;;;7.30;6.60;;;22.80;71.90;;;;;;6308730;27;88391;-67
2022/12/23 06:10:58;;;;;;;7.03;6.32;;;22.80;71.80;;;;;;6302364;27;89182;-67
2022/12/23 06:14:01;;;;;;;7.00;6.30;;;22.80;71.80;;;;;;6297339;27;88287;-67
2022/12/23 06:17:03;;;;;;;7.10;6.40;;;22.80;71.90;;;;;;6298965;27;90380;-67
2022/12/23 06:20:07;;;;;;;7.53;6.70;;;22.80;72.00;;;;;;6294995;27;89053;-68
2022/12/23 06:23:10;;;;;;;8.15;6.80;;;22.80;71.90;;;;;;6302493;27;89267;-66
2022/12/23 06:26:12;;;;;;;7.53;6.60;;;22.80;72.00;;;;;;6300852;27;87978;-67
2022/12/23 06:29:14;;;;;;;7.93;6.55;;;22.90;72.20;;;;;;6304198;27;89250;-67
2022/12/23 06:32:16;;;;;;;8.20;6.28;;;22.80;72.10;;;;;;6302754;27;89430;-67
2022/12/23 06:35:18;;;;;;;10.10;7.00;;;22.80;72.20;;;;;;6285305;27;89040;-67
2022/12/23 06:38:22;;;;;;;6.97;6.25;;;22.90;72.20;;;;;;6308922;27;88306;-68
2022/12/23 06:41:24;;;;;;;7.40;6.30;;;22.90;72.20;;;;;;6304952;27;89156;-67
2022/12/23 06:44:26;;;;;;;8.13;6.28;;;22.90;72.10;;;;;;6283534;27;89092;-67
2022/12/23 06:47:28;;;;;;;6.70;6.00;;;22.90;72.10;;;;;;6295272;27;90031;-67
2022/12/23 06:50:30;;;;;;;8.05;6.43;;;23.00;72.10;;;;;;6304607;27;88733;-67
2022/12/23 06:53:33;;;;;;;8.07;6.30;;;22.90;72.10;;;;;;6307452;27;88660;-67
2022/12/23 06:56:36;;;;;;;7.13;6.20;;;22.90;72.10;;;;;;6305316;27;89379;-67
2022/12/23 06:59:38;;;;;;;7.93;6.60;;;23.00;72.20;;;;;;6306988;27;89476;-67
2022/12/23 07:02:40;;;;;;;9.57;6.78;;;23.00;72.30;;;;;;6303698;27;88474;-67
2022/12/23 07:05:42;;;;;;;7.22;5.95;;;23.00;72.70;;;;;;6303830;27;89237;-67
2022/12/23 07:08:45;;;;;;;8.15;6.45;;;23.00;72.50;;;;;;6308264;27;89472;-67
2022/12/23 07:11:47;;;;;;;8.30;6.10;;;23.00;72.50;;;;;;6305346;27;89140;-68
2022/12/23 07:14:49;;;;;;;8.30;6.10;;;23.00;72.50;;;;;;6299303;27;89507;-66
2022/12/23 07:17:51;;;;;;;8.15;6.10;;;23.00;72.30;;;;;;6301240;27;90054;-67
2022/12/23 07:20:53;;;;;;;7.38;6.13;;;23.10;72.40;;;;;;6301483;27;89247;-66
2022/12/23 07:23:57;;;;;;;7.68;6.15;;;23.10;72.30;;;;;;6294893;27;88938;-67
2022/12/23 07:26:59;;;;;;;8.25;6.35;;;23.10;72.40;;;;;;6300480;27;89155;-67
2022/12/23 07:30:01;;;;;;;9.00;6.88;;;23.10;72.60;;;;;;6306551;27;89043;-67
2022/12/23 07:33:58;;;;;;;8.73;6.20;;;23.10;79.80;;;;;;6283861;27;89161;-67
2022/12/23 07:37:00;;;;;;;6.78;5.75;;;23.20;81.80;;;;;;6296610;27;88925;-67
2022/12/23 07:40:04;;;;;;;7.72;5.70;;;23.20;79.40;;;;;;6298745;27;88339;-67
2022/12/23 07:43:06;;;;;;;11.15;6.15;;;23.20;78.20;;;;;;6305020;27;87925;-67
2022/12/23 07:46:09;;;;;;;9.55;5.72;;;23.30;77.40;;;;;;6295454;27;89056;-67
2022/12/23 07:49:11;;;;;;;9.40;5.57;;;23.30;76.80;;;;;;6299880;27;89991;-67
2022/12/23 07:52:13;;;;;;;6.18;5.15;;;23.30;76.40;;;;;;6299054;27;87979;-67
2022/12/23 07:55:16;;;;;;;7.32;5.18;;;23.30;76.10;;;;;;6303534;27;89063;-67
2022/12/23 07:58:18;;;;;;;8.00;5.40;;;23.30;75.70;;;;;;6295004;27;87993;-67
2022/12/23 08:01:21;;;;;;;8.23;5.70;;;23.40;75.30;;;;;;6306175;27;87457;-67
2022/12/23 08:04:23;;;;;;;9.15;5.40;;;23.40;74.70;;;;;;6306342;27;89111;-65
2022/12/23 08:07:25;;;;;;;6.95;6.18;;;23.30;75.00;;;;;;6306910;27;89040;-67
2022/12/23 08:10:29;;;;;;;7.40;5.35;;;23.30;74.90;;;;;;6293403;27;87366;-67
2022/12/23 08:13:33;;;;;;;7.43;5.32;;;23.40;74.80;;;;;;6288513;27;89214;-67
2022/12/23 08:16:35;;;;;;;5.90;5.30;;;23.40;74.20;;;;;;6287694;27;88857;-66
2022/12/23 08:19:37;;;;;;;7.10;5.10;;;23.40;74.00;;;;;;6295659;27;90098;-67
2022/12/23 08:22:39;;;;;;;8.50;6.00;;;23.40;73.90;;;;;;6292445;27;87870;-67
2022/12/23 08:25:42;;;;;;;6.00;5.25;;;23.40;73.70;;;;;;6302157;27;89129;-67
2022/12/23 08:28:45;;;;;;;5.95;5.28;;;23.40;73.50;;;;;;6304022;27;89105;-67
2022/12/23 08:31:49;;;;;;;7.00;5.20;;;23.40;73.30;;;;;;6287414;27;88217;-67
2022/12/23 08:34:51;;;;;;;6.30;4.97;;;23.40;73.30;;;;;;6301333;27;88980;-67
2022/12/23 08:37:53;;;;;;;5.00;4.47;;;23.40;73.30;;;;;;6305010;27;89046;-67
2022/12/23 08:40:56;;;;;;;6.43;4.97;;;23.40;73.30;;;;;;6300160;27;88420;-67
2022/12/23 08:43:58;;;;;;;6.00;4.80;;;23.40;73.30;;;;;;6300675;27;89081;-66
2022/12/23 08:47:00;;;;;;;6.20;4.53;;;23.40;73.20;;;;;;6289820;27;89081;-67
2022/12/23 08:50:03;;;;;;;5.97;4.68;;;23.40;73.10;;;;;;6300200;27;89980;-67
2022/12/23 08:53:05;;;;;;;6.70;4.80;;;23.40;73.10;;;;;;6295714;27;88460;-67
2022/12/23 08:56:10;;;;;;;6.10;4.68;;;23.40;73.10;;;;;;6283818;27;89085;-67
2022/12/23 08:59:14;;;;;;;5.30;4.65;;;23.40;73.00;;;;;;6294134;27;89164;-67
2022/12/23 09:02:16;;;;;;;5.53;4.63;;;23.40;73.10;;;;;;6293776;27;89131;-67
2022/12/23 09:05:18;;;;;;;4.72;4.18;;;23.40;73.00;;;;;;6303590;27;89347;-67
2022/12/23 09:08:20;;;;;;;5.38;4.43;;;23.40;73.10;;;;;;6297632;27;89356;-67
2022/12/23 09:11:25;;;;;;;5.45;4.43;;;23.40;73.00;;;;;;6283011;27;88294;-67
2022/12/23 09:14:27;;;;;;;4.55;4.15;;;23.40;73.00;;;;;;6286267;27;88914;-67
2022/12/23 09:17:29;;;;;;;5.43;4.50;;;23.40;74.00;;;;;;6303112;27;89106;-68
2022/12/23 09:20:31;;;;;;;5.05;4.45;;;23.40;73.00;;;;;;6293350;27;90079;-67
2022/12/23 09:23:34;;;;;;;4.82;3.90;;;23.40;73.10;;;;;;6305440;27;88116;-67
2022/12/23 09:26:38;;;;;;;4.85;4.20;;;23.40;73.10;;;;;;6305162;27;88970;-67
2022/12/23 09:29:40;;;;;;;4.78;4.15;;;23.40;73.20;;;;;;6304323;27;89153;-67
2022/12/23 09:32:42;;;;;;;4.70;4.00;;;23.40;73.10;;;;;;6298303;27;89497;-67
2022/12/23 09:35:44;;;;;;;5.47;4.50;;;23.40;73.10;;;;;;6284169;27;89506;-67
2022/12/23 09:38:46;;;;;;;4.95;4.22;;;23.40;73.10;;;;;;6302753;27;89155;-66
2022/12/23 09:42:00;;;;;;;5.05;4.10;;;23.40;73.10;;;;;;6299714;27;87960;-67
2022/12/23 09:45:18;;;;;;;5.63;4.15;;;23.40;73.10;;;;;;6304840;27;87984;-67
2022/12/23 09:48:25;;;;;;;5.15;4.22;;;23.40;73.10;;;;;;6308268;27;89010;-65
2022/12/23 09:51:29;;;;;;;5.07;4.18;;;23.40;73.10;;;;;;6307195;27;89645;-67
2022/12/23 09:54:40;;;;;;;4.55;3.85;;;23.40;73.20;;;;;;6308225;27;88911;-67
2022/12/23 09:57:52;;;;;;;4.03;3.58;;;23.40;73.10;;;;;;6299629;27;89202;-67
2022/12/23 10:01:08;;;;;;;6.47;4.43;;;23.40;73.20;;;;;;6299077;27;89037;-69
2022/12/23 10:04:32;;;;;;;4.32;3.80;;;23.40;73.40;;;;;;6291112;27;89054;-67
2022/12/23 10:07:39;;;;;;;4.18;3.67;;;23.40;73.30;;;;;;6298933;27;88963;-68
2022/12/23 10:10:45;;;;;;;4.43;3.80;;;23.40;73.40;;;;;;6308549;27;89168;-67
2022/12/23 10:13:50;;;;;;;4.32;3.83;;;23.40;73.50;;;;;;6303241;27;88386;-66
2022/12/23 10:16:55;;;;;;;4.55;4.03;;;23.50;74.20;;;;;;6290737;27;88295;-68
2022/12/23 10:20:02;;;;;;;4.40;4.00;;;23.40;76.90;;;;;;6299629;27;88974;-68
2022/12/23 10:23:06;;;;;;;6.20;4.38;;;23.50;75.70;;;;;;6306712;27;90076;-69
2022/12/23 10:26:17;;;;;;;9.90;4.50;;;23.70;75.20;;;;;;6308241;27;89022;-68
2022/12/23 10:29:22;;;;;;;35.08;22.25;;;24.00;74.00;;;;;;6307848;27;87969;-68
2022/12/23 10:32:33;;;;;;;24.00;17.67;;;24.30;73.20;;;;;;6299684;27;89000;-69
2022/12/23 10:35:49;;;;;;;27.80;18.77;;;24.30;72.60;;;;;;6286491;27;89032;-68
2022/12/23 10:38:58;;;;;;;25.00;18.92;;;24.30;72.30;;;;;;6306865;27;89197;-69
2022/12/23 10:42:15;;;;;;;24.02;17.88;;;24.30;72.20;;;;;;6298857;27;89128;-69
2022/12/23 10:45:29;;;;;;;24.15;18.23;;;24.20;72.30;;;;;;6294387;27;88473;-68
2022/12/23 10:48:46;;;;;;;23.25;16.27;;;24.20;72.30;;;;;;6306152;27;89043;-68
2022/12/23 10:51:51;;;;;;;21.95;15.45;;;24.10;72.50;;;;;;6293216;27;89484;-68
2022/12/23 10:54:53;;;;;;;19.90;14.63;;;24.10;72.60;;;;;;6305225;27;89983;-69
2022/12/23 10:58:03;;;;;;;19.88;14.57;;;24.10;72.70;;;;;;6305367;27;89042;-68
2022/12/23 11:01:08;;;;;;;18.55;13.60;;;24.00;72.60;;;;;;6298903;27;89048;-68
2022/12/23 11:04:15;;;;;;;18.58;13.82;;;24.00;72.60;;;;;;6303645;27;89948;-69
2022/12/23 11:07:21;;;;;;;20.75;13.18;;;24.00;72.70;;;;;;6304380;27;89043;-69
2022/12/23 11:10:28;;;;;;;19.60;13.10;;;23.90;72.60;;;;;;6295108;27;89170;-69
2022/12/23 11:13:36;;;;;;;17.88;12.15;;;23.90;72.80;;;;;;6303186;27;89602;-69
2022/12/23 11:16:45;;;;;;;15.98;12.00;;;23.90;72.90;;;;;;6303333;27;88299;-68
2022/12/23 11:19:48;;;;;;;15.70;11.75;;;23.90;73.00;;;;;;6294164;27;89017;-69
2022/12/23 11:22:51;;;;;;;15.60;11.25;;;23.80;73.00;;;;;;6301485;27;89067;-68
2022/12/23 11:26:01;;;;;;;14.05;10.40;;;23.80;73.00;;;;;;6293006;27;90024;-62
2022/12/23 11:29:06;;;;;;;15.57;11.15;;;23.80;73.20;;;;;;6303968;27;89003;-64
2022/12/23 11:32:18;;;;;;;16.17;11.50;;;23.80;73.20;;;;;;6305323;27;89279;-63
2022/12/23 11:35:29;;;;;;;15.13;10.13;;;23.80;73.20;;;;;;6296076;27;89114;-68
2022/12/23 11:38:32;;;;;;;13.85;10.40;;;23.80;73.80;;;;;;6306169;27;89062;-67
2022/12/23 11:41:39;;;;;;;12.88;9.75;;;23.70;73.60;;;;;;6293986;27;88254;-68
2022/12/23 11:44:45;;;;;;;15.30;10.02;;;23.70;73.50;;;;;;6307366;27;89204;-67
2022/12/23 11:47:49;;;;;;;13.60;9.15;;;23.70;73.60;;;;;;6305981;27;88278;-67
2022/12/23 11:50:58;;;;;;;13.40;9.30;;;23.70;73.60;;;;;;6305721;27;89044;-67
2022/12/23 11:54:02;;;;;;;12.05;8.85;;;23.70;73.60;;;;;;6305994;27;89286;-67
2022/12/23 11:57:08;;;;;;;9.95;8.15;;;23.70;73.60;;;;;;6293101;27;89967;-68
2022/12/23 12:00:20;;;;;;;12.02;8.75;;;23.70;73.70;;;;;;6305303;27;87953;-68
2022/12/23 12:03:27;;;;;;;10.90;8.13;;;23.70;73.70;;;;;;6283107;27;89219;-68
2022/12/23 12:06:32;;;;;;;10.68;8.25;;;23.70;73.70;;;;;;6303804;27;89970;-69
2022/12/23 12:09:39;;;;;;;10.50;7.47;;;23.70;73.70;;;;;;6303309;27;88489;-69
2022/12/23 12:12:41;;;;;;;9.52;7.50;;;23.60;73.70;;;;;;6304617;27;89028;-69
2022/12/23 12:15:50;;;;;;;10.05;8.20;;;23.70;73.90;;;;;;6299602;27;88981;-68
2022/12/23 12:18:56;;;;;;;10.65;8.27;;;23.70;73.90;;;;;;6293972;27;88477;-68
2022/12/23 12:22:03;;;;;;;10.27;7.57;;;23.60;73.90;;;;;;6305646;27;87970;-68
2022/12/23 12:25:15;;;;;;;9.27;7.25;;;23.60;73.80;;;;;;6305034;27;89252;-68
2022/12/23 12:28:21;;;;;;;10.27;7.00;;;23.60;73.80;;;;;;6301838;27;89970;-68
2022/12/23 12:31:27;;;;;;;10.65;7.68;;;23.70;73.80;;;;;;6296229;27;89031;-67
2022/12/23 12:34:40;;;;;;;9.65;6.95;;;23.60;73.70;;;;;;6294593;27;88887;-68
2022/12/23 12:37:49;;;;;;;11.70;6.97;;;23.60;73.70;;;;;;6305709;27;89074;-68
2022/12/23 12:40:55;;;;;;;9.75;6.57;;;23.60;73.70;;;;;;6301390;27;89568;-69
2022/12/23 12:44:03;;;;;;;8.80;7.00;;;23.60;73.60;;;;;;6292455;27;89074;-67
2022/12/23 12:47:12;;;;;;;9.38;6.63;;;23.60;73.60;;;;;;6292660;27;89105;-68
2022/12/23 12:50:20;;;;;;;11.23;7.05;;;23.70;73.70;;;;;;6305299;27;88560;-67
2022/12/23 12:53:23;;;;;;;10.43;6.90;;;23.60;73.70;;;;;;6301459;27;87958;-68
2022/12/23 12:56:30;;;;;;;9.85;6.85;;;23.60;73.70;;;;;;6296299;27;89077;-69
2022/12/23 12:59:35;;;;;;;10.95;6.38;;;23.60;73.60;;;;;;6303537;27;90137;-69
2022/12/23 13:03:00;;;;;;;8.25;6.60;;;23.60;73.60;;;;;;6297185;27;88028;-68
2022/12/23 13:06:19;;;;;;;7.50;6.15;;;23.60;73.60;;;;;;6304645;27;89047;-68
2022/12/23 13:09:29;;;;;;;8.70;5.68;;;23.60;73.50;;;;;;6302613;27;88212;-68
2022/12/23 13:12:45;;;;;;;8.60;6.50;;;23.60;73.50;;;;;;6305426;27;89035;-68
2022/12/23 13:15:54;;;;;;;7.47;5.95;;;23.60;73.50;;;;;;6304883;27;87966;-68
2022/12/23 13:19:01;;;;;;;7.63;5.70;;;23.60;73.40;;;;;;6304076;27;87885;-68
2022/12/23 13:22:08;;;;;;;7.22;5.60;;;23.60;73.40;;;;;;6305251;27;88429;-67
2022/12/23 13:25:15;;;;;;;8.18;5.93;;;23.60;73.40;;;;;;6298523;27;89061;-69
2022/12/23 13:28:30;;;;;;;6.45;5.28;;;23.60;73.50;;;;;;6309285;27;89060;-68
2022/12/23 13:31:42;;;;;;;7.18;5.38;;;23.50;73.40;;;;;;6308478;27;89552;-68
2022/12/23 13:34:53;;;;;;;7.18;5.85;;;23.60;73.50;;;;;;6294047;27;89504;-69
2022/12/23 13:38:03;;;;;;;6.30;5.43;;;23.60;73.40;;;;;;6302371;27;87941;-68
2022/12/23 13:41:15;;;;;;;7.75;5.70;;;23.60;73.30;;;;;;6297689;27;89070;-68
2022/12/23 13:44:18;;;;;;;7.00;5.07;;;23.60;73.30;;;;;;6297649;27;87968;-68
2022/12/23 13:47:26;;;;;;;6.40;5.13;;;23.60;73.40;;;;;;6289727;27;89419;-68
2022/12/23 13:50:36;;;;;;;6.47;4.95;;;23.60;73.30;;;;;;6299475;27;88974;-68
2022/12/23 13:53:52;;;;;;;6.82;5.00;;;23.60;73.30;;;;;;6309148;27;88243;-68
2022/12/23 13:57:07;;;;;;;6.93;5.30;;;23.60;73.30;;;;;;6308058;27;89064;-68
2022/12/23 14:00:26;;;;;;;6.93;5.22;;;23.60;73.20;;;;;;6285100;27;89324;-69
2022/12/23 14:03:34;;;;;;;6.28;4.72;;;23.50;73.20;;;;;;6297209;27;90048;-68
2022/12/23 14:06:43;;;;;;;5.72;4.65;;;23.60;73.30;;;;;;6308301;27;89225;-68
2022/12/23 14:09:51;;;;;;;5.88;5.00;;;23.60;73.30;;;;;;6299790;27;90133;-68
2022/12/23 14:13:00;;;;;;;7.20;4.95;;;23.50;73.20;;;;;;6300861;27;89331;-67
2022/12/23 14:16:32;;;;;;;7.63;5.55;;;23.50;73.20;;;;;;6306522;27;89074;-68
2022/12/23 14:19:58;;;;;;;5.20;4.70;;;23.50;73.20;;;;;;6297083;27;87968;-68
2022/12/23 14:23:14;;;;;;;5.95;4.80;;;23.50;73.20;;;;;;6291789;27;89077;-68
2022/12/23 14:26:34;;;;;;;7.57;4.90;;;23.50;73.20;;;;;;6308152;27;86929;-67
2022/12/23 14:29:50;;;;;;;7.57;4.60;;;23.50;73.20;;;;;;6305914;27;88889;-68
2022/12/23 14:32:57;;;;;;;7.75;4.40;;;23.50;73.20;;;;;;6308997;27;89094;-69
2022/12/23 14:36:21;;;;;;;6.65;4.47;;;23.50;73.30;;;;;;6307016;27;90243;-69
2022/12/23 14:39:31;;;;;;;7.80;4.35;;;23.50;73.20;;;;;;6307525;27;89120;-69
2022/12/23 14:42:36;;;;;;;7.07;4.13;;;23.50;73.20;;;;;;6304235;27;89403;-68
2022/12/23 14:45:42;;;;;;;5.47;4.38;;;23.50;73.20;;;;;;6292944;27;89163;-68
2022/12/23 14:49:14;;;;;;;6.00;4.35;;;23.50;73.30;;;;;;6307903;27;89093;-70
2022/12/23 14:52:52;;;;;;;5.70;4.20;;;23.50;73.30;;;;;;6288861;27;88936;-69
2022/12/23 14:56:21;;;;;;;7.63;4.18;;;23.50;73.30;;;;;;6305829;27;88909;-68
2022/12/23 14:59:34;;;;;;;6.13;4.32;;;23.50;73.30;;;;;;6304583;27;88753;-69
2022/12/23 15:02:40;;;;;;;7.32;4.05;;;23.50;73.30;;;;;;6287042;27;89071;-68
2022/12/23 15:05:43;;;;;;;5.93;4.30;;;23.50;73.40;;;;;;6303352;27;89062;-68
2022/12/23 15:08:46;;;;;;;6.07;3.80;;;23.50;73.50;;;;;;6305423;27;89988;-69
2022/12/23 15:11:49;;;;;;;6.13;3.65;;;23.50;73.40;;;;;;6287114;27;89326;-68
2022/12/23 15:14:56;;;;;;;7.60;4.22;;;23.50;73.50;;;;;;6297055;27;89111;-69
2022/12/23 15:18:01;;;;;;;7.53;4.32;;;23.50;73.60;;;;;;6307807;27;88559;-68
2022/12/23 15:21:09;;;;;;;5.25;4.00;;;23.50;73.60;;;;;;6303827;27;89423;-68
2022/12/23 15:24:15;;;;;;;6.18;3.95;;;23.50;73.70;;;;;;6299010;27;89103;-68
2022/12/23 15:27:19;;;;;;;5.13;3.45;;;23.50;73.70;;;;;;6298303;27;88365;-68
2022/12/23 15:30:23;;;;;;;7.13;3.75;;;23.50;73.80;;;;;;6293902;27;88319;-68
2022/12/23 15:33:29;;;;;;;7.28;3.70;;;23.50;74.00;;;;;;6295881;27;89321;-67
2022/12/23 15:36:35;;;;;;;7.63;3.42;;;23.50;74.30;;;;;;6300152;27;89853;-68
2022/12/23 15:39:40;;;;;;;7.72;3.58;;;23.50;74.70;;;;;;6302751;27;90239;-68
2022/12/23 15:42:48;;;;;;;7.13;3.30;;;23.50;74.70;;;;;;6304161;27;89047;-69
2022/12/23 15:45:52;;;;;;;5.88;3.45;;;23.50;74.60;;;;;;6297628;27;89008;-68
2022/12/23 15:48:55;;;;;;;6.15;3.50;;;23.50;74.80;;;;;;6301203;27;89038;-68
2022/12/23 15:52:00;;;;;;;6.88;3.33;;;23.50;75.20;;;;;;6298801;27;89418;-67
2022/12/23 15:55:13;;;;;;;7.35;3.85;;;23.50;75.30;;;;;;6293991;27;89297;-68
2022/12/23 15:58:21;;;;;;;4.95;3.17;;;23.50;75.30;;;;;;6301733;27;89057;-68
2022/12/23 16:01:25;;;;;;;4.53;3.00;;;23.50;75.20;;;;;;6303995;27;88447;-68
2022/12/23 16:04:29;;;;;;;5.15;3.00;;;23.50;75.10;;;;;;6294141;27;89058;-66
2022/12/23 16:07:35;;;;;;;3.47;2.72;;;23.50;75.00;;;;;;6305802;27;89071;-68
2022/12/23 16:10:37;;;;;;;4.97;2.90;;;23.50;75.00;;;;;;6294559;27;89884;-68
2022/12/23 16:13:40;;;;;;;5.40;3.25;;;23.50;75.10;;;;;;6295122;27;89066;-66
2022/12/23 16:16:44;;;;;;;5.28;2.90;;;23.50;75.20;;;;;;6305967;27;89020;-68
2022/12/23 16:19:47;;;;;;;3.95;3.00;;;23.50;75.20;;;;;;6289350;27;89190;-67
2022/12/23 16:22:53;;;;;;;4.35;2.90;;;23.40;75.20;;;;;;6300226;27;88987;-68
2022/12/23 16:25:55;;;;;;;3.95;2.50;;;23.50;75.00;;;;;;6305918;27;89067;-68
2022/12/23 16:29:00;;;;;;;6.68;3.00;;;23.50;75.00;;;;;;6302440;27;89106;-68
2022/12/23 16:32:04;;;;;;;5.72;3.45;;;23.50;74.90;;;;;;6282221;27;88248;-67
2022/12/23 16:35:10;;;;;;;3.50;2.85;;;23.50;74.70;;;;;;6291568;27;89036;-68